sensor_id;sensor_type;location;lat;lon;timestamp;temperature;humidity
3300;DHT22;1662;49.310;8.134;2023-04-12T00:00:24;10.50;99.90
3300;DHT22;1662;49.310;8.134;2023-04-12T00:02:50;10.50;99.90
3300;DHT22;1662;49.310;8.134;2023-04-12T00:05:20;10.40;99.90
3300;DHT22;1662;49.310;8.134;2023-04-12T00:07:48;10.40;99.90
3300;DHT22;1662;49.310;8.134;2023-04-12T00:10:14;10.40;99.90
3300;DHT22;1662;49.310;8.134;2023-04-12T00:12:40;10.30;99.90
3300;DHT22;1662;49.310;8.134;2023-04-12T00:15:06;10.30;99.90
3300;DHT22;1662;49.310;8.134;2023-04-12T00:17:32;10.30;99.90
3300;DHT22;1662;49.310;8.134;2023-04-12T00:19:58;10.30;99.90
3300;DHT22;1662;49.310;8.134;2023-04-12T00:22:24;10.30;99.90
3300;DHT22;1662;49.310;8.134;2023-04-12T00:24:50;10.10;99.90
3300;DHT22;1662;49.310;8.134;2023-04-12T00:27:16;9.90;99.90
3300;DHT22;1662;49.310;8.134;2023-04-12T00:29:44;10.00;99.90
3300;DHT22;1662;49.310;8.134;2023-04-12T00:32:09;10.20;99.90
3300;DHT22;1662;49.310;8.134;2023-04-12T00:34:35;10.00;99.90
3300;DHT22;1662;49.310;8.134;2023-04-12T00:37:01;9.90;99.90
3300;DHT22;1662;49.310;8.134;2023-04-12T00:39:26;9.90;99.90
3300;DHT22;1662;49.310;8.134;2023-04-12T00:41:52;9.90;99.90
3300;DHT22;1662;49.310;8.134;2023-04-12T00:44:20;9.70;99.90
3300;DHT22;1662;49.310;8.134;2023-04-12T00:46:47;9.80;99.90
3300;DHT22;1662;49.310;8.134;2023-04-12T00:49:13;9.80;99.90
3300;DHT22;1662;49.310;8.134;2023-04-12T00:51:39;9.80;99.90
3300;DHT22;1662;49.310;8.134;2023-04-12T00:54:05;9.70;99.90
3300;DHT22;1662;49.310;8.134;2023-04-12T00:56:34;9.70;99.90
3300;DHT22;1662;49.310;8.134;2023-04-12T00:59:01;9.70;99.90
3300;DHT22;1662;49.310;8.134;2023-04-12T01:01:26;9.60;99.90
3300;DHT22;1662;49.310;8.134;2023-04-12T01:03:53;9.90;99.90
3300;DHT22;1662;49.310;8.134;2023-04-12T01:09:32;9.60;99.90
3300;DHT22;1662;49.310;8.134;2023-04-12T01:14:57;9.50;99.90
3300;DHT22;1662;49.310;8.134;2023-04-12T01:17:29;9.50;99.90
3300;DHT22;1662;49.310;8.134;2023-04-12T01:20:07;9.50;99.90
3300;DHT22;1662;49.310;8.134;2023-04-12T01:28:34;9.20;99.90
3300;DHT22;1662;49.310;8.134;2023-04-12T01:31:03;9.10;99.90
3300;DHT22;1662;49.310;8.134;2023-04-12T01:33:32;9.10;99.90
3300;DHT22;1662;49.310;8.134;2023-04-12T01:35:59;9.00;99.90
3300;DHT22;1662;49.310;8.134;2023-04-12T01:38:29;9.00;99.90
3300;DHT22;1662;49.310;8.134;2023-04-12T01:40:55;8.90;99.90
3300;DHT22;1662;49.310;8.134;2023-04-12T01:43:21;8.80;99.90
3300;DHT22;1662;49.310;8.134;2023-04-12T01:45:46;8.90;99.90
3300;DHT22;1662;49.310;8.134;2023-04-12T01:48:12;8.90;99.90
3300;DHT22;1662;49.310;8.134;2023-04-12T01:53:24;8.80;99.90
3300;DHT22;1662;49.310;8.134;2023-04-12T01:55:57;8.90;99.90
3300;DHT22;1662;49.310;8.134;2023-04-12T01:58:24;8.80;99.90
3300;DHT22;1662;49.310;8.134;2023-04-12T02:00:50;8.80;99.90
3300;DHT22;1662;49.310;8.134;2023-04-12T02:03:19;8.90;99.90
3300;DHT22;1662;49.310;8.134;2023-04-12T02:05:49;8.90;99.90
3300;DHT22;1662;49.310;8.134;2023-04-12T02:08:16;8.90;99.90
3300;DHT22;1662;49.310;8.134;2023-04-12T02:10:41;8.80;99.90
3300;DHT22;1662;49.310;8.134;2023-04-12T02:13:10;8.80;99.90
3300;DHT22;1662;49.310;8.134;2023-04-12T02:15:36;8.80;99.90
3300;DHT22;1662;49.310;8.134;2023-04-12T02:18:05;8.80;99.90
3300;DHT22;1662;49.310;8.134;2023-04-12T02:20:31;8.80;99.90
3300;DHT22;1662;49.310;8.134;2023-04-12T02:22:56;8.70;99.90
3300;DHT22;1662;49.310;8.134;2023-04-12T02:25:22;8.70;99.90
3300;DHT22;1662;49.310;8.134;2023-04-12T02:27:48;8.70;99.90
3300;DHT22;1662;49.310;8.134;2023-04-12T02:30:14;8.70;99.90
3300;DHT22;1662;49.310;8.134;2023-04-12T02:32:40;8.60;99.90
3300;DHT22;1662;49.310;8.134;2023-04-12T02:35:13;8.70;99.90
3300;DHT22;1662;49.310;8.134;2023-04-12T02:37:44;8.60;99.90
3300;DHT22;1662;49.310;8.134;2023-04-12T02:40:13;8.60;99.90
3300;DHT22;1662;49.310;8.134;2023-04-12T02:42:43;8.60;99.90
3300;DHT22;1662;49.310;8.134;2023-04-12T02:45:10;8.60;99.90
3300;DHT22;1662;49.310;8.134;2023-04-12T02:47:38;8.50;99.90
3300;DHT22;1662;49.310;8.134;2023-04-12T02:50:05;8.60;99.90
3300;DHT22;1662;49.310;8.134;2023-04-12T02:52:31;8.60;99.90
3300;DHT22;1662;49.310;8.134;2023-04-12T02:54:57;8.60;99.90
3300;DHT22;1662;49.310;8.134;2023-04-12T02:57:23;8.60;99.90
3300;DHT22;1662;49.310;8.134;2023-04-12T02:59:52;8.60;99.90
3300;DHT22;1662;49.310;8.134;2023-04-12T03:02:21;8.60;99.90
3300;DHT22;1662;49.310;8.134;2023-04-12T03:04:47;8.50;99.90
3300;DHT22;1662;49.310;8.134;2023-04-12T03:07:18;8.60;99.90
3300;DHT22;1662;49.310;8.134;2023-04-12T03:09:48;8.50;99.90
3300;DHT22;1662;49.310;8.134;2023-04-12T03:12:14;8.50;99.90
3300;DHT22;1662;49.310;8.134;2023-04-12T03:14:43;8.50;99.90
3300;DHT22;1662;49.310;8.134;2023-04-12T03:17:27;8.50;99.90
3300;DHT22;1662;49.310;8.134;2023-04-12T03:19:54;8.50;99.90
3300;DHT22;1662;49.310;8.134;2023-04-12T03:22:19;8.50;99.90
3300;DHT22;1662;49.310;8.134;2023-04-12T03:24:45;8.50;99.90
3300;DHT22;1662;49.310;8.134;2023-04-12T03:27:11;8.50;99.90
3300;DHT22;1662;49.310;8.134;2023-04-12T03:29:36;8.40;99.90
3300;DHT22;1662;49.310;8.134;2023-04-12T03:32:02;8.40;99.90
3300;DHT22;1662;49.310;8.134;2023-04-12T03:34:28;8.50;99.90
3300;DHT22;1662;49.310;8.134;2023-04-12T03:37:00;8.40;99.90
3300;DHT22;1662;49.310;8.134;2023-04-12T03:39:26;8.40;99.90
3300;DHT22;1662;49.310;8.134;2023-04-12T03:41:52;8.40;99.90
3300;DHT22;1662;49.310;8.134;2023-04-12T03:44:18;8.40;99.90
3300;DHT22;1662;49.310;8.134;2023-04-12T03:46:44;8.40;99.90
3300;DHT22;1662;49.310;8.134;2023-04-12T03:49:10;8.40;99.90
3300;DHT22;1662;49.310;8.134;2023-04-12T03:51:36;8.40;99.90
3300;DHT22;1662;49.310;8.134;2023-04-12T03:54:08;8.40;99.90
3300;DHT22;1662;49.310;8.134;2023-04-12T03:56:33;8.40;99.90
3300;DHT22;1662;49.310;8.134;2023-04-12T03:58:59;8.40;99.90
3300;DHT22;1662;49.310;8.134;2023-04-12T04:01:25;8.40;99.90
3300;DHT22;1662;49.310;8.134;2023-04-12T04:03:50;8.40;99.90
3300;DHT22;1662;49.310;8.134;2023-04-12T04:06:16;8.40;99.90
3300;DHT22;1662;49.310;8.134;2023-04-12T04:08:42;8.40;99.90
3300;DHT22;1662;49.310;8.134;2023-04-12T04:11:10;8.30;99.90
3300;DHT22;1662;49.310;8.134;2023-04-12T04:13:39;8.30;99.90
3300;DHT22;1662;49.310;8.134;2023-04-12T04:16:05;8.40;99.90
3300;DHT22;1662;49.310;8.134;2023-04-12T04:18:32;8.30;99.90
3300;DHT22;1662;49.310;8.134;2023-04-12T04:21:00;8.30;99.90
3300;DHT22;1662;49.310;8.134;2023-04-12T04:23:25;8.30;99.90
3300;DHT22;1662;49.310;8.134;2023-04-12T04:25:53;8.30;99.90
3300;DHT22;1662;49.310;8.134;2023-04-12T04:28:19;8.30;99.90
3300;DHT22;1662;49.310;8.134;2023-04-12T04:30:45;8.30;99.90
3300;DHT22;1662;49.310;8.134;2023-04-12T04:33:11;8.40;99.90
3300;DHT22;1662;49.310;8.134;2023-04-12T04:35:40;8.30;99.90
3300;DHT22;1662;49.310;8.134;2023-04-12T04:38:09;8.40;99.90
3300;DHT22;1662;49.310;8.134;2023-04-12T04:40:38;8.40;99.90
3300;DHT22;1662;49.310;8.134;2023-04-12T04:43:04;8.30;99.90
3300;DHT22;1662;49.310;8.134;2023-04-12T04:45:31;8.40;99.90
3300;DHT22;1662;49.310;8.134;2023-04-12T04:47:57;8.40;99.90
3300;DHT22;1662;49.310;8.134;2023-04-12T04:50:23;8.30;99.90
3300;DHT22;1662;49.310;8.134;2023-04-12T04:52:50;8.30;99.90
3300;DHT22;1662;49.310;8.134;2023-04-12T04:55:16;8.30;99.90
3300;DHT22;1662;49.310;8.134;2023-04-12T04:57:42;8.30;99.90
3300;DHT22;1662;49.310;8.134;2023-04-12T05:00:09;8.30;99.90
3300;DHT22;1662;49.310;8.134;2023-04-12T05:02:39;8.30;99.90
3300;DHT22;1662;49.310;8.134;2023-04-12T05:05:10;8.20;99.90
3300;DHT22;1662;49.310;8.134;2023-04-12T05:07:40;8.30;99.90
3300;DHT22;1662;49.310;8.134;2023-04-12T05:10:09;8.30;99.90
3300;DHT22;1662;49.310;8.134;2023-04-12T05:12:35;8.30;99.90
3300;DHT22;1662;49.310;8.134;2023-04-12T05:15:03;8.30;99.90
3300;DHT22;1662;49.310;8.134;2023-04-12T05:17:29;8.30;99.90
3300;DHT22;1662;49.310;8.134;2023-04-12T05:19:55;8.40;99.90
3300;DHT22;1662;49.310;8.134;2023-04-12T05:22:20;8.30;99.90
3300;DHT22;1662;49.310;8.134;2023-04-12T05:24:49;8.40;99.90
3300;DHT22;1662;49.310;8.134;2023-04-12T05:27:15;8.40;99.90
3300;DHT22;1662;49.310;8.134;2023-04-12T05:29:44;8.40;99.90
3300;DHT22;1662;49.310;8.134;2023-04-12T05:32:11;8.40;99.90
3300;DHT22;1662;49.310;8.134;2023-04-12T05:34:37;8.50;99.90
3300;DHT22;1662;49.310;8.134;2023-04-12T05:37:03;8.40;99.90
3300;DHT22;1662;49.310;8.134;2023-04-12T05:39:29;8.40;99.90
3300;DHT22;1662;49.310;8.134;2023-04-12T05:41:56;8.40;99.90
3300;DHT22;1662;49.310;8.134;2023-04-12T05:44:24;8.40;99.90
3300;DHT22;1662;49.310;8.134;2023-04-12T05:46:49;8.40;99.90
3300;DHT22;1662;49.310;8.134;2023-04-12T05:49:15;8.40;99.90
3300;DHT22;1662;49.310;8.134;2023-04-12T05:51:41;8.40;99.90
3300;DHT22;1662;49.310;8.134;2023-04-12T05:54:06;8.40;99.90
3300;DHT22;1662;49.310;8.134;2023-04-12T05:56:34;8.40;99.90
3300;DHT22;1662;49.310;8.134;2023-04-12T05:59:00;8.40;99.90
3300;DHT22;1662;49.310;8.134;2023-04-12T06:01:27;8.40;99.90
3300;DHT22;1662;49.310;8.134;2023-04-12T06:03:57;8.40;99.90
3300;DHT22;1662;49.310;8.134;2023-04-12T06:06:23;8.30;99.90
3300;DHT22;1662;49.310;8.134;2023-04-12T06:08:49;8.30;99.90
3300;DHT22;1662;49.310;8.134;2023-04-12T06:11:15;8.30;99.90
3300;DHT22;1662;49.310;8.134;2023-04-12T06:13:41;8.30;99.90
3300;DHT22;1662;49.310;8.134;2023-04-12T06:16:06;8.30;99.90
3300;DHT22;1662;49.310;8.134;2023-04-12T06:18:32;8.30;99.90
3300;DHT22;1662;49.310;8.134;2023-04-12T06:20:58;8.30;99.90
3300;DHT22;1662;49.310;8.134;2023-04-12T06:23:24;8.30;99.90
3300;DHT22;1662;49.310;8.134;2023-04-12T06:25:50;8.30;99.90
3300;DHT22;1662;49.310;8.134;2023-04-12T06:28:17;8.30;99.90
3300;DHT22;1662;49.310;8.134;2023-04-12T06:30:43;8.40;99.90
3300;DHT22;1662;49.310;8.134;2023-04-12T06:33:11;8.30;99.90
3300;DHT22;1662;49.310;8.134;2023-04-12T06:35:40;8.40;99.90
3300;DHT22;1662;49.310;8.134;2023-04-12T06:38:05;8.40;99.90
3300;DHT22;1662;49.310;8.134;2023-04-12T06:40:31;8.40;99.90
3300;DHT22;1662;49.310;8.134;2023-04-12T06:42:57;8.40;99.90
3300;DHT22;1662;49.310;8.134;2023-04-12T06:45:23;8.30;99.90
3300;DHT22;1662;49.310;8.134;2023-04-12T06:47:48;8.30;99.90
3300;DHT22;1662;49.310;8.134;2023-04-12T06:50:14;8.40;99.90
3300;DHT22;1662;49.310;8.134;2023-04-12T06:52:39;8.40;99.90
3300;DHT22;1662;49.310;8.134;2023-04-12T06:55:05;8.40;99.90
3300;DHT22;1662;49.310;8.134;2023-04-12T06:57:31;8.40;99.90
3300;DHT22;1662;49.310;8.134;2023-04-12T07:00:00;8.40;99.90
3300;DHT22;1662;49.310;8.134;2023-04-12T07:02:26;8.50;99.90
3300;DHT22;1662;49.310;8.134;2023-04-12T07:04:52;8.50;99.90
3300;DHT22;1662;49.310;8.134;2023-04-12T07:07:20;8.50;99.90
3300;DHT22;1662;49.310;8.134;2023-04-12T07:09:46;8.50;99.90
3300;DHT22;1662;49.310;8.134;2023-04-12T07:12:12;8.50;99.90
3300;DHT22;1662;49.310;8.134;2023-04-12T07:14:38;8.50;99.90
3300;DHT22;1662;49.310;8.134;2023-04-12T07:17:04;8.50;99.90
3300;DHT22;1662;49.310;8.134;2023-04-12T07:19:30;8.60;99.90
3300;DHT22;1662;49.310;8.134;2023-04-12T07:21:59;8.60;99.90
3300;DHT22;1662;49.310;8.134;2023-04-12T07:24:25;8.60;99.90
3300;DHT22;1662;49.310;8.134;2023-04-12T07:26:53;8.60;99.90
3300;DHT22;1662;49.310;8.134;2023-04-12T07:29:19;8.60;99.90
3300;DHT22;1662;49.310;8.134;2023-04-12T07:31:45;8.60;99.90
3300;DHT22;1662;49.310;8.134;2023-04-12T07:34:11;8.60;99.90
3300;DHT22;1662;49.310;8.134;2023-04-12T07:36:37;8.70;99.90
3300;DHT22;1662;49.310;8.134;2023-04-12T07:39:02;8.70;99.90
3300;DHT22;1662;49.310;8.134;2023-04-12T07:41:28;8.70;99.90
3300;DHT22;1662;49.310;8.134;2023-04-12T07:43:56;8.70;99.90
3300;DHT22;1662;49.310;8.134;2023-04-12T07:46:22;8.70;99.90
3300;DHT22;1662;49.310;8.134;2023-04-12T07:48:47;8.70;99.90
3300;DHT22;1662;49.310;8.134;2023-04-12T07:51:13;8.80;99.90
3300;DHT22;1662;49.310;8.134;2023-04-12T07:53:38;8.80;99.90
3300;DHT22;1662;49.310;8.134;2023-04-12T07:56:06;8.80;99.90
3300;DHT22;1662;49.310;8.134;2023-04-12T07:58:32;8.80;99.90
3300;DHT22;1662;49.310;8.134;2023-04-12T08:00:58;8.80;99.90
3300;DHT22;1662;49.310;8.134;2023-04-12T08:03:23;8.90;99.90
3300;DHT22;1662;49.310;8.134;2023-04-12T08:05:50;8.90;99.90
3300;DHT22;1662;49.310;8.134;2023-04-12T08:08:18;9.10;99.90
3300;DHT22;1662;49.310;8.134;2023-04-12T08:10:46;9.10;99.90
3300;DHT22;1662;49.310;8.134;2023-04-12T08:13:11;9.00;99.90
3300;DHT22;1662;49.310;8.134;2023-04-12T08:15:37;9.00;99.90
3300;DHT22;1662;49.310;8.134;2023-04-12T08:18:02;9.10;99.90
3300;DHT22;1662;49.310;8.134;2023-04-12T08:20:29;9.10;99.90
3300;DHT22;1662;49.310;8.134;2023-04-12T08:22:54;9.10;99.90
3300;DHT22;1662;49.310;8.134;2023-04-12T08:25:20;9.10;99.90
3300;DHT22;1662;49.310;8.134;2023-04-12T08:27:48;9.20;99.90
3300;DHT22;1662;49.310;8.134;2023-04-12T08:30:14;9.20;99.90
3300;DHT22;1662;49.310;8.134;2023-04-12T08:32:39;9.30;99.90
3300;DHT22;1662;49.310;8.134;2023-04-12T08:35:06;9.40;99.90
3300;DHT22;1662;49.310;8.134;2023-04-12T08:37:32;9.40;99.90
3300;DHT22;1662;49.310;8.134;2023-04-12T08:40:00;9.50;99.90
3300;DHT22;1662;49.310;8.134;2023-04-12T08:42:26;9.70;99.90
3300;DHT22;1662;49.310;8.134;2023-04-12T08:44:52;9.70;99.90
3300;DHT22;1662;49.310;8.134;2023-04-12T08:47:18;9.70;99.90
3300;DHT22;1662;49.310;8.134;2023-04-12T08:49:45;9.60;99.90
3300;DHT22;1662;49.310;8.134;2023-04-12T08:52:11;9.60;99.90
3300;DHT22;1662;49.310;8.134;2023-04-12T08:54:36;9.60;99.90
3300;DHT22;1662;49.310;8.134;2023-04-12T08:57:07;9.70;99.90
3300;DHT22;1662;49.310;8.134;2023-04-12T08:59:36;9.70;99.90
3300;DHT22;1662;49.310;8.134;2023-04-12T09:02:03;9.70;99.90
3300;DHT22;1662;49.310;8.134;2023-04-12T09:04:28;9.90;99.90
3300;DHT22;1662;49.310;8.134;2023-04-12T09:06:54;9.80;99.90
3300;DHT22;1662;49.310;8.134;2023-04-12T09:09:39;9.80;99.90
3300;DHT22;1662;49.310;8.134;2023-04-12T09:12:06;9.90;99.90
3300;DHT22;1662;49.310;8.134;2023-04-12T09:14:32;10.00;99.90
3300;DHT22;1662;49.310;8.134;2023-04-12T09:16:58;10.00;99.90
3300;DHT22;1662;49.310;8.134;2023-04-12T09:21:56;9.90;99.90
3300;DHT22;1662;49.310;8.134;2023-04-12T09:24:22;9.90;99.90
3300;DHT22;1662;49.310;8.134;2023-04-12T09:27:05;10.00;99.90
3300;DHT22;1662;49.310;8.134;2023-04-12T09:29:32;10.00;99.90
3300;DHT22;1662;49.310;8.134;2023-04-12T09:32:02;10.00;99.90
3300;DHT22;1662;49.310;8.134;2023-04-12T09:34:29;10.00;99.90
3300;DHT22;1662;49.310;8.134;2023-04-12T09:36:55;10.10;99.90
3300;DHT22;1662;49.310;8.134;2023-04-12T09:39:34;10.00;99.90
3300;DHT22;1662;49.310;8.134;2023-04-12T09:42:12;10.00;99.90
3300;DHT22;1662;49.310;8.134;2023-04-12T09:44:39;10.00;99.90
3300;DHT22;1662;49.310;8.134;2023-04-12T09:47:05;9.70;99.90
3300;DHT22;1662;49.310;8.134;2023-04-12T09:49:42;9.80;99.90
3300;DHT22;1662;49.310;8.134;2023-04-12T09:52:09;10.00;99.90
3300;DHT22;1662;49.310;8.134;2023-04-12T09:54:46;10.10;99.90
3300;DHT22;1662;49.310;8.134;2023-04-12T09:57:17;10.20;99.90
3300;DHT22;1662;49.310;8.134;2023-04-12T09:59:48;11.00;99.90
3300;DHT22;1662;49.310;8.134;2023-04-12T10:02:17;10.10;99.90
3300;DHT22;1662;49.310;8.134;2023-04-12T10:04:44;10.20;99.90
3300;DHT22;1662;49.310;8.134;2023-04-12T10:07:10;10.10;99.90
3300;DHT22;1662;49.310;8.134;2023-04-12T10:09:38;10.20;99.90
3300;DHT22;1662;49.310;8.134;2023-04-12T10:12:04;10.20;99.90
3300;DHT22;1662;49.310;8.134;2023-04-12T10:14:30;10.30;99.90
3300;DHT22;1662;49.310;8.134;2023-04-12T10:16:57;10.30;99.90
3300;DHT22;1662;49.310;8.134;2023-04-12T10:19:28;10.30;99.90
3300;DHT22;1662;49.310;8.134;2023-04-12T10:21:57;10.30;99.90
3300;DHT22;1662;49.310;8.134;2023-04-12T10:24:24;10.30;99.90
3300;DHT22;1662;49.310;8.134;2023-04-12T10:26:50;10.30;99.90
3300;DHT22;1662;49.310;8.134;2023-04-12T10:29:31;10.50;99.90
3300;DHT22;1662;49.310;8.134;2023-04-12T10:32:19;10.50;99.90
3300;DHT22;1662;49.310;8.134;2023-04-12T10:34:53;10.50;99.90
3300;DHT22;1662;49.310;8.134;2023-04-12T10:38:05;10.50;99.90
3300;DHT22;1662;49.310;8.134;2023-04-12T10:40:15;10.50;99.90
3300;DHT22;1662;49.310;8.134;2023-04-12T10:42:43;10.50;99.90
3300;DHT22;1662;49.310;8.134;2023-04-12T10:45:35;10.80;99.90
3300;DHT22;1662;49.310;8.134;2023-04-12T10:48:01;10.60;99.90
3300;DHT22;1662;49.310;8.134;2023-04-12T10:50:30;10.50;99.90
3300;DHT22;1662;49.310;8.134;2023-04-12T10:55:40;10.70;99.90
3300;DHT22;1662;49.310;8.134;2023-04-12T10:58:07;10.60;99.90
3300;DHT22;1662;49.310;8.134;2023-04-12T11:03:26;10.60;99.90
3300;DHT22;1662;49.310;8.134;2023-04-12T11:06:05;10.70;99.90
3300;DHT22;1662;49.310;8.134;2023-04-12T11:08:31;10.60;99.90
3300;DHT22;1662;49.310;8.134;2023-04-12T11:11:04;10.60;99.90
3300;DHT22;1662;49.310;8.134;2023-04-12T11:13:42;10.60;99.90
3300;DHT22;1662;49.310;8.134;2023-04-12T11:16:09;10.60;99.90
3300;DHT22;1662;49.310;8.134;2023-04-12T11:18:37;10.50;99.90
3300;DHT22;1662;49.310;8.134;2023-04-12T11:21:04;10.60;99.90
3300;DHT22;1662;49.310;8.134;2023-04-12T11:23:31;10.60;99.90
3300;DHT22;1662;49.310;8.134;2023-04-12T11:25:57;10.60;99.90
3300;DHT22;1662;49.310;8.134;2023-04-12T11:28:23;10.70;99.90
3300;DHT22;1662;49.310;8.134;2023-04-12T11:30:57;10.80;99.90
3300;DHT22;1662;49.310;8.134;2023-04-12T11:33:36;10.90;99.90
3300;DHT22;1662;49.310;8.134;2023-04-12T11:36:07;10.70;99.90
3300;DHT22;1662;49.310;8.134;2023-04-12T11:38:36;10.80;99.90
3300;DHT22;1662;49.310;8.134;2023-04-12T11:41:03;10.90;99.90
3300;DHT22;1662;49.310;8.134;2023-04-12T11:43:34;10.90;99.90
3300;DHT22;1662;49.310;8.134;2023-04-12T11:46:03;10.80;99.90
3300;DHT22;1662;49.310;8.134;2023-04-12T11:48:29;11.60;99.90
3300;DHT22;1662;49.310;8.134;2023-04-12T11:50:55;10.90;99.90
3300;DHT22;1662;49.310;8.134;2023-04-12T11:53:27;10.80;99.90
3300;DHT22;1662;49.310;8.134;2023-04-12T11:55:57;10.90;99.90
3300;DHT22;1662;49.310;8.134;2023-04-12T11:58:26;11.00;99.90
3300;DHT22;1662;49.310;8.134;2023-04-12T12:00:53;11.10;99.90
3300;DHT22;1662;49.310;8.134;2023-04-12T12:03:20;11.40;99.90
3300;DHT22;1662;49.310;8.134;2023-04-12T12:05:46;11.50;99.90
3300;DHT22;1662;49.310;8.134;2023-04-12T12:08:13;11.60;99.90
3300;DHT22;1662;49.310;8.134;2023-04-12T12:10:39;11.80;99.90
3300;DHT22;1662;49.310;8.134;2023-04-12T12:13:12;11.90;99.90
3300;DHT22;1662;49.310;8.134;2023-04-12T12:15:38;11.90;99.90
3300;DHT22;1662;49.310;8.134;2023-04-12T12:18:08;11.90;99.90
3300;DHT22;1662;49.310;8.134;2023-04-12T12:21:00;12.00;99.90
3300;DHT22;1662;49.310;8.134;2023-04-12T12:23:35;12.10;99.90
3300;DHT22;1662;49.310;8.134;2023-04-12T12:26:01;12.20;99.90
3300;DHT22;1662;49.310;8.134;2023-04-12T12:28:37;12.10;99.90
3300;DHT22;1662;49.310;8.134;2023-04-12T12:31:07;12.20;99.90
3300;DHT22;1662;49.310;8.134;2023-04-12T12:33:41;12.20;99.90
3300;DHT22;1662;49.310;8.134;2023-04-12T12:36:07;12.20;99.90
3300;DHT22;1662;49.310;8.134;2023-04-12T12:38:38;12.30;99.90
3300;DHT22;1662;49.310;8.134;2023-04-12T12:43:46;12.20;99.90
3300;DHT22;1662;49.310;8.134;2023-04-12T12:46:13;12.20;99.90
3300;DHT22;1662;49.310;8.134;2023-04-12T12:48:43;12.30;99.90
3300;DHT22;1662;49.310;8.134;2023-04-12T12:51:10;12.20;99.90
3300;DHT22;1662;49.310;8.134;2023-04-12T12:53:36;12.30;99.90
3300;DHT22;1662;49.310;8.134;2023-04-12T12:56:02;12.20;99.90
3300;DHT22;1662;49.310;8.134;2023-04-12T12:58:28;12.20;99.90
3300;DHT22;1662;49.310;8.134;2023-04-12T13:00:54;12.10;99.90
3300;DHT22;1662;49.310;8.134;2023-04-12T13:03:20;12.10;99.90
3300;DHT22;1662;49.310;8.134;2023-04-12T13:05:46;12.20;99.90
3300;DHT22;1662;49.310;8.134;2023-04-12T13:08:14;12.20;99.90
3300;DHT22;1662;49.310;8.134;2023-04-12T13:10:40;12.40;99.90
3300;DHT22;1662;49.310;8.134;2023-04-12T13:13:05;12.40;99.90
3300;DHT22;1662;49.310;8.134;2023-04-12T13:15:31;12.30;99.90
3300;DHT22;1662;49.310;8.134;2023-04-12T13:17:56;12.30;99.90
3300;DHT22;1662;49.310;8.134;2023-04-12T13:20:22;12.20;99.90
3300;DHT22;1662;49.310;8.134;2023-04-12T13:22:49;12.20;99.90
3300;DHT22;1662;49.310;8.134;2023-04-12T13:25:15;12.20;99.90
3300;DHT22;1662;49.310;8.134;2023-04-12T13:27:41;12.20;99.90
3300;DHT22;1662;49.310;8.134;2023-04-12T13:30:07;12.20;99.90
3300;DHT22;1662;49.310;8.134;2023-04-12T13:32:32;12.20;99.90
3300;DHT22;1662;49.310;8.134;2023-04-12T13:34:58;12.30;99.90
3300;DHT22;1662;49.310;8.134;2023-04-12T13:37:24;12.30;99.90
3300;DHT22;1662;49.310;8.134;2023-04-12T13:39:50;12.40;99.90
3300;DHT22;1662;49.310;8.134;2023-04-12T13:42:16;12.60;99.90
3300;DHT22;1662;49.310;8.134;2023-04-12T13:44:42;12.70;99.90
3300;DHT22;1662;49.310;8.134;2023-04-12T13:47:08;12.90;99.90
3300;DHT22;1662;49.310;8.134;2023-04-12T13:49:36;12.90;99.90
3300;DHT22;1662;49.310;8.134;2023-04-12T13:52:02;12.90;99.90
3300;DHT22;1662;49.310;8.134;2023-04-12T13:54:27;12.80;99.90
3300;DHT22;1662;49.310;8.134;2023-04-12T13:56:55;12.70;99.90
3300;DHT22;1662;49.310;8.134;2023-04-12T13:59:22;12.60;99.90
3300;DHT22;1662;49.310;8.134;2023-04-12T14:01:48;12.50;99.90
3300;DHT22;1662;49.310;8.134;2023-04-12T14:04:13;12.40;99.90
3300;DHT22;1662;49.310;8.134;2023-04-12T14:06:39;12.40;99.90
3300;DHT22;1662;49.310;8.134;2023-04-12T14:09:04;12.30;99.90
3300;DHT22;1662;49.310;8.134;2023-04-12T14:11:43;12.30;99.90
3300;DHT22;1662;49.310;8.134;2023-04-12T14:14:10;12.20;99.90
3300;DHT22;1662;49.310;8.134;2023-04-12T14:16:35;12.10;99.90
3300;DHT22;1662;49.310;8.134;2023-04-12T14:19:01;12.00;99.90
3300;DHT22;1662;49.310;8.134;2023-04-12T14:21:26;12.00;99.90
3300;DHT22;1662;49.310;8.134;2023-04-12T14:23:54;12.20;99.90
3300;DHT22;1662;49.310;8.134;2023-04-12T14:26:19;12.20;99.90
3300;DHT22;1662;49.310;8.134;2023-04-12T14:28:45;12.30;99.90
3300;DHT22;1662;49.310;8.134;2023-04-12T14:31:17;12.40;99.90
3300;DHT22;1662;49.310;8.134;2023-04-12T14:33:42;12.50;99.90
3300;DHT22;1662;49.310;8.134;2023-04-12T14:36:08;12.60;99.90
3300;DHT22;1662;49.310;8.134;2023-04-12T14:38:34;12.80;99.90
3300;DHT22;1662;49.310;8.134;2023-04-12T14:41:00;12.80;99.90
3300;DHT22;1662;49.310;8.134;2023-04-12T14:43:26;13.00;99.90
3300;DHT22;1662;49.310;8.134;2023-04-12T14:45:54;13.00;99.90
3300;DHT22;1662;49.310;8.134;2023-04-12T14:48:20;13.00;99.90
3300;DHT22;1662;49.310;8.134;2023-04-12T14:50:45;13.00;99.90
3300;DHT22;1662;49.310;8.134;2023-04-12T14:53:11;13.00;99.90
3300;DHT22;1662;49.310;8.134;2023-04-12T14:55:38;13.00;99.90
3300;DHT22;1662;49.310;8.134;2023-04-12T14:58:04;13.30;99.90
3300;DHT22;1662;49.310;8.134;2023-04-12T15:00:32;13.70;99.90
3300;DHT22;1662;49.310;8.134;2023-04-12T15:02:58;14.00;99.90
3300;DHT22;1662;49.310;8.134;2023-04-12T15:05:25;14.40;99.90
3300;DHT22;1662;49.310;8.134;2023-04-12T15:07:52;14.60;99.90
3300;DHT22;1662;49.310;8.134;2023-04-12T15:10:18;14.80;99.90
3300;DHT22;1662;49.310;8.134;2023-04-12T15:15:11;15.10;99.90
3300;DHT22;1662;49.310;8.134;2023-04-12T15:17:39;15.50;99.90
3300;DHT22;1662;49.310;8.134;2023-04-12T15:20:05;15.50;99.90
3300;DHT22;1662;49.310;8.134;2023-04-12T15:22:37;15.70;99.90
3300;DHT22;1662;49.310;8.134;2023-04-12T15:25:04;15.90;99.90
3300;DHT22;1662;49.310;8.134;2023-04-12T15:27:30;16.20;99.90
3300;DHT22;1662;49.310;8.134;2023-04-12T15:32:28;16.20;99.90
3300;DHT22;1662;49.310;8.134;2023-04-12T15:34:54;16.30;99.90
3300;DHT22;1662;49.310;8.134;2023-04-12T15:37:24;16.50;99.90
3300;DHT22;1662;49.310;8.134;2023-04-12T15:39:51;16.40;99.90
3300;DHT22;1662;49.310;8.134;2023-04-12T15:42:17;16.60;99.90
3300;DHT22;1662;49.310;8.134;2023-04-12T15:44:43;16.80;99.90
3300;DHT22;1662;49.310;8.134;2023-04-12T15:47:10;16.70;99.90
3300;DHT22;1662;49.310;8.134;2023-04-12T15:49:39;16.90;99.90
3300;DHT22;1662;49.310;8.134;2023-04-12T15:52:05;16.90;99.90
3300;DHT22;1662;49.310;8.134;2023-04-12T15:54:30;17.00;99.90
3300;DHT22;1662;49.310;8.134;2023-04-12T15:56:56;17.10;99.90
3300;DHT22;1662;49.310;8.134;2023-04-12T15:59:22;17.10;99.90
3300;DHT22;1662;49.310;8.134;2023-04-12T16:01:47;17.30;99.90
3300;DHT22;1662;49.310;8.134;2023-04-12T16:04:13;17.40;99.90
3300;DHT22;1662;49.310;8.134;2023-04-12T16:06:45;17.30;99.90
3300;DHT22;1662;49.310;8.134;2023-04-12T16:09:10;17.30;99.90
3300;DHT22;1662;49.310;8.134;2023-04-12T16:11:36;17.40;99.90
3300;DHT22;1662;49.310;8.134;2023-04-12T16:14:02;17.50;99.90
3300;DHT22;1662;49.310;8.134;2023-04-12T16:16:28;17.50;99.90
3300;DHT22;1662;49.310;8.134;2023-04-12T16:18:54;17.70;99.90
3300;DHT22;1662;49.310;8.134;2023-04-12T16:21:21;17.80;99.90
3300;DHT22;1662;49.310;8.134;2023-04-12T16:23:49;17.80;99.90
3300;DHT22;1662;49.310;8.134;2023-04-12T16:26:17;17.80;99.90
3300;DHT22;1662;49.310;8.134;2023-04-12T16:28:51;17.80;99.90
3300;DHT22;1662;49.310;8.134;2023-04-12T16:31:18;17.70;99.90
3300;DHT22;1662;49.310;8.134;2023-04-12T16:33:48;17.70;99.90
3300;DHT22;1662;49.310;8.134;2023-04-12T16:36:14;17.70;99.90
3300;DHT22;1662;49.310;8.134;2023-04-12T16:38:41;17.80;99.90
3300;DHT22;1662;49.310;8.134;2023-04-12T16:41:10;17.80;99.90